NCAR-RAP Real-Time Weather Data

Output produced by METARs form (12 August 2020  18:25 UTC)
found at http://weather.rap.ucar.edu/surface/
 
KPDX 121753Z 28004KT 10SM FEW025 SCT037 BKN120 17/10 A3008 RMK AO2 SLP186 60000 T01720100 10178 20144 53008
KPDX 121653Z VRB03KT 10SM FEW027 BKN120 BKN200 17/10 A3007 RMK AO2 RAE06 SLP182 P0000 T01670100
KPDX 121553Z 00000KT 10SM -RA FEW038 BKN110 OVC200 15/10 A3007 RMK AO2 RAB29 SLP181 P0000 T01500100
KPDX 121453Z 00000KT 10SM BKN110 OVC200 15/09 A3006 RMK AO2 SLP178 T01500094 51015
KPDX 121353Z 33003KT 10SM FEW020 BKN120 OVC200 14/09 A3005 RMK AO2 SLP174 T01440094
KPDX 121253Z 35003KT 10SM SCT150 OVC200 14/09 A3004 RMK AO2 SLP169 T01440094
KPDX 121153Z 34004KT 10SM OVC180 14/09 A3002 RMK AO2 SLP163 T01440094 10167 20139 50003
KPDX 121053Z 31006KT 10SM BKN090 OVC250 15/08 A3002 RMK AO2 SLP163 T01500083
KPDX 120953Z 33004KT 10SM SCT100 14/08 A3001 RMK AO2 SLP162 T01440083
KPDX 120853Z 31008KT 10SM FEW250 14/08 A3001 RMK AO2 SLP160 T01440078 51012
KPDX 120753Z 32008KT 10SM CLR 15/08 A3000 RMK AO2 SLP157 T01500083 402670133
KPDX 120653Z 32010KT 10SM FEW100 FEW250 16/08 A2998 RMK AO2 SLP152 T01560078
KPDX 120553Z 33008KT 10SM FEW100 BKN250 17/08 A2997 RMK AO2 SLP148 T01670078 10267 20167 51021
KPDX 120453Z 34007KT 10SM FEW100 FEW250 18/08 A2996 RMK AO2 SLP143 T01780083
KPDX 120353Z 35006KT 10SM FEW100 SCT250 19/09 A2993 RMK AO2 SLP135 T01940089
KPDX 120253Z 34008KT 10SM FEW100 BKN270 22/07 A2991 RMK AO2 SLP127 T02170072 55001
KPDX 120153Z 35009KT 10SM FEW150 FEW250 23/07 A2990 RMK AO2 SLP124 T02330067
KPDX 120053Z 36009KT 10SM FEW150 FEW250 25/08 A2990 RMK AO2 SLP124 CCSL W T02500083
KPDX 112353Z 31008KT 10SM FEW050 FEW150 FEW250 26/09 A2991 RMK AO2 SLP127 T02610094 10267 20183 56018
KPDX 112253Z 30009KT 10SM FEW050 FEW250 26/08 A2993 RMK AO2 SLP133 T02610083
KPDX 112153Z 32006KT 10SM FEW050 FEW150 FEW250 24/09 A2995 RMK AO2 SLP140 T02440094
KPDX 112053Z 31008KT 10SM FEW050 FEW250 24/10 A2996 RMK AO2 SLP145 T02390100 58014
KPDX 111953Z 30004KT 10SM FEW250 22/10 A2998 RMK AO2 SLP152 T02170100
KPDX 111853Z VRB04KT 10SM FEW250 21/11 A3000 RMK AO2 SLP157 T02060106
KPDX 111753Z 33006KT 10SM FEW020 FEW250 18/11 A3001 RMK AO2 SLP160 T01830106 10189 20133 56001
KPDX 111653Z 35007KT 10SM FEW020 SCT250 18/11 A3001 RMK AO2 SLP160 T01780106
KPDX 111553Z 35008KT 10SM FEW015 FEW150 BKN240 16/10 A3001 RMK AO2 SLP161 T01610100
KPDX 111453Z 32008KT 10SM FEW015 FEW220 16/11 A3001 RMK AO2 SLP160 T01560106 51010
KPDX 111353Z 32003KT 10SM FEW015 FEW200 14/11 A3001 RMK AO2 SLP159 T01390106
KPDX 111253Z 34005KT 10SM FEW015 13/11 A2999 RMK AO2 SLP152 T01330106
KPDX 111153Z VRB03KT 10SM CLR 14/09 A2998 RMK AO2 SLP150 T01390094 10194 20133 55000
KPDX 111053Z 36003KT 10SM CLR 14/09 A2998 RMK AO2 SLP150 T01440089
KPDX 110953Z VRB03KT 10SM CLR 14/08 A2998 RMK AO2 SLP149 T01440078
KPDX 110853Z 33005KT 10SM CLR 16/07 A2998 RMK AO2 SLP150 T01560072 51005
KPDX 110753Z 31008KT 10SM CLR 17/07 A2998 RMK AO2 SLP150 T01670067 403220161
KPDX 110653Z 31006KT 10SM CLR 18/07 A2997 RMK AO2 SLP147 T01780067
KPDX 110553Z 32011KT 10SM CLR 19/08 A2996 RMK AO2 SLP145 T01940078 10311 20194 51010
KPDX 110453Z 32012KT 10SM FEW150 21/08 A2996 RMK AO2 SLP145 T02110083
KPDX 110353Z 33009G17KT 10SM FEW150 23/10 A2995 RMK AO2 SLP139 T02280100
KPDX 110253Z 33008G16KT 10SM FEW150 26/10 A2993 RMK AO2 SLP134 T02610100 55002
KPDX 110153Z 34009G16KT 10SM CLR 29/13 A2992 RMK AO2 SLP132 T02890133
KPDX 110053Z 34008G15KT 10SM CLR 30/13 A2993 RMK AO2 SLP133 T03000133
KPDX 102353Z 34010KT 10SM CLR 31/14 A2994 RMK AO2 SLP137 T03110139 10322 20239 58022
KPDX 102253Z 30011KT 10SM CLR 32/14 A2996 RMK AO2 SLP143 T03170139
KPDX 102153Z 33008KT 10SM CLR 31/12 A2998 RMK AO2 SLP152 T03110122
KPDX 102053Z 34006KT 10SM CLR 30/13 A3000 RMK AO2 SLP158 T03000128 56023
KPDX 101953Z 32008KT 10SM CLR 29/11 A3002 RMK AO2 SLP166 T02890106
KPDX 101853Z VRB04KT 10SM CLR 27/10 A3005 RMK AO2 SLP174 T02670100